KHUA/HUA METAR and TAF weather

Enter ICAO airport designator
Station Type Date Time Source
KHUA METAR 2020/11/25 22:48 UTC NOAA

KHUA 252248Z AUTO 22010KT 10SM BKN019 17/15 A2994 RMK AO2 SLP138


Station Type Date Time Source
KHUA Decoded METAR 2020/11/25 22:48 UTC NOAA

Station name not available
Nov 25, 2020 - 05:48 PM EST / 2020.11.25 2248 UTC
Wind: from the SW (220 degrees) at 12 MPH (10 KT):0
Visibility: 10 mile(s):0
Sky conditions: mostly cloudy
Temperature: 62 F (17 C)
Dew Point: 59 F (15 C)
Relative Humidity: 88%
Pressure (altimeter): 29.94 in. Hg (1013 hPa)
ob: KHUA 252248Z AUTO 22010KT 10SM BKN019 17/15 A2994 RMK AO2 SLP138
cycle: 23

Station Type Date Time Source
KHUA TAF UTC NOAA

Error!

Example: see airport list